sensor_id;sensor_type;location;lat;lon;timestamp;P1;durP1;ratioP1;P2;durP2;ratioP2
50968;SDS011;36982;51.474;7.228;2023-09-12T00:02:04;3.78;;;2.42;;
50968;SDS011;36982;51.474;7.228;2023-09-12T00:04:29;4.07;;;2.80;;
50968;SDS011;36982;51.474;7.228;2023-09-12T00:06:55;4.35;;;2.78;;
50968;SDS011;36982;51.474;7.228;2023-09-12T00:09:21;3.05;;;2.75;;
50968;SDS011;36982;51.474;7.228;2023-09-12T00:11:46;3.37;;;2.53;;
50968;SDS011;36982;51.474;7.228;2023-09-12T00:14:16;3.03;;;2.60;;
50968;SDS011;36982;51.474;7.228;2023-09-12T00:16:42;4.50;;;2.75;;
50968;SDS011;36982;51.474;7.228;2023-09-12T00:19:08;3.40;;;2.72;;
50968;SDS011;36982;51.474;7.228;2023-09-12T00:21:33;4.00;;;2.90;;
50968;SDS011;36982;51.474;7.228;2023-09-12T00:23:59;3.15;;;2.85;;
50968;SDS011;36982;51.474;7.228;2023-09-12T00:26:24;3.25;;;2.42;;
50968;SDS011;36982;51.474;7.228;2023-09-12T00:28:50;5.78;;;3.12;;
50968;SDS011;36982;51.474;7.228;2023-09-12T00:31:16;4.22;;;3.00;;
50968;SDS011;36982;51.474;7.228;2023-09-12T00:33:41;3.17;;;2.87;;
50968;SDS011;36982;51.474;7.228;2023-09-12T00:36:07;4.62;;;3.30;;
50968;SDS011;36982;51.474;7.228;2023-09-12T00:38:32;3.83;;;3.00;;
50968;SDS011;36982;51.474;7.228;2023-09-12T00:40:58;3.85;;;2.87;;
50968;SDS011;36982;51.474;7.228;2023-09-12T00:43:23;3.55;;;3.05;;
50968;SDS011;36982;51.474;7.228;2023-09-12T00:45:49;5.78;;;3.08;;
50968;SDS011;36982;51.474;7.228;2023-09-12T00:48:14;5.32;;;3.25;;
50968;SDS011;36982;51.474;7.228;2023-09-12T00:50:42;4.12;;;2.92;;
50968;SDS011;36982;51.474;7.228;2023-09-12T00:53:08;4.07;;;3.20;;
50968;SDS011;36982;51.474;7.228;2023-09-12T00:55:34;4.10;;;3.45;;
50968;SDS011;36982;51.474;7.228;2023-09-12T00:58:03;3.42;;;3.12;;
50968;SDS011;36982;51.474;7.228;2023-09-12T01:00:29;5.28;;;3.25;;
50968;SDS011;36982;51.474;7.228;2023-09-12T01:02:55;5.20;;;3.97;;
50968;SDS011;36982;51.474;7.228;2023-09-12T01:05:21;5.25;;;3.95;;
50968;SDS011;36982;51.474;7.228;2023-09-12T01:07:47;6.07;;;3.78;;
50968;SDS011;36982;51.474;7.228;2023-09-12T01:10:13;4.37;;;3.85;;
50968;SDS011;36982;51.474;7.228;2023-09-12T01:12:39;5.60;;;4.30;;
50968;SDS011;36982;51.474;7.228;2023-09-12T01:15:05;5.00;;;4.40;;
50968;SDS011;36982;51.474;7.228;2023-09-12T01:17:35;6.07;;;4.80;;
50968;SDS011;36982;51.474;7.228;2023-09-12T01:20:01;5.55;;;4.32;;
50968;SDS011;36982;51.474;7.228;2023-09-12T01:22:46;6.22;;;4.57;;
50968;SDS011;36982;51.474;7.228;2023-09-12T01:25:58;6.37;;;4.90;;
50968;SDS011;36982;51.474;7.228;2023-09-12T01:28:30;6.57;;;5.12;;
50968;SDS011;36982;51.474;7.228;2023-09-12T01:30:59;5.78;;;4.68;;
50968;SDS011;36982;51.474;7.228;2023-09-12T01:33:27;6.50;;;4.95;;
50968;SDS011;36982;51.474;7.228;2023-09-12T01:35:53;5.85;;;5.25;;
50968;SDS011;36982;51.474;7.228;2023-09-12T01:38:19;7.18;;;5.30;;
50968;SDS011;36982;51.474;7.228;2023-09-12T01:40:49;6.45;;;5.47;;
50968;SDS011;36982;51.474;7.228;2023-09-12T01:43:17;8.57;;;6.95;;
50968;SDS011;36982;51.474;7.228;2023-09-12T01:45:45;7.80;;;6.18;;
50968;SDS011;36982;51.474;7.228;2023-09-12T01:48:12;8.52;;;5.93;;
50968;SDS011;36982;51.474;7.228;2023-09-12T01:50:41;7.35;;;5.45;;
50968;SDS011;36982;51.474;7.228;2023-09-12T01:53:06;7.57;;;5.35;;
50968;SDS011;36982;51.474;7.228;2023-09-12T01:55:32;7.12;;;5.20;;
50968;SDS011;36982;51.474;7.228;2023-09-12T01:57:59;6.05;;;4.70;;
50968;SDS011;36982;51.474;7.228;2023-09-12T02:00:25;8.57;;;5.15;;
50968;SDS011;36982;51.474;7.228;2023-09-12T02:02:51;6.43;;;5.37;;
50968;SDS011;36982;51.474;7.228;2023-09-12T02:05:25;7.10;;;5.78;;
50968;SDS011;36982;51.474;7.228;2023-09-12T02:07:51;6.65;;;5.32;;
50968;SDS011;36982;51.474;7.228;2023-09-12T02:10:17;6.93;;;6.03;;
50968;SDS011;36982;51.474;7.228;2023-09-12T02:12:42;8.85;;;6.25;;
50968;SDS011;36982;51.474;7.228;2023-09-12T02:15:08;9.77;;;6.90;;
50968;SDS011;36982;51.474;7.228;2023-09-12T02:17:34;10.25;;;7.85;;
50968;SDS011;36982;51.474;7.228;2023-09-12T02:20:00;8.93;;;7.93;;
50968;SDS011;36982;51.474;7.228;2023-09-12T02:22:25;13.10;;;10.05;;
50968;SDS011;36982;51.474;7.228;2023-09-12T02:24:51;11.82;;;9.30;;
50968;SDS011;36982;51.474;7.228;2023-09-12T02:27:17;13.57;;;9.75;;
50968;SDS011;36982;51.474;7.228;2023-09-12T02:29:42;14.32;;;10.23;;
50968;SDS011;36982;51.474;7.228;2023-09-12T02:32:08;14.40;;;9.80;;
50968;SDS011;36982;51.474;7.228;2023-09-12T02:34:34;13.60;;;9.30;;
50968;SDS011;36982;51.474;7.228;2023-09-12T02:37:00;13.57;;;9.25;;
50968;SDS011;36982;51.474;7.228;2023-09-12T02:39:25;14.82;;;10.68;;
50968;SDS011;36982;51.474;7.228;2023-09-12T02:41:51;14.65;;;10.40;;
50968;SDS011;36982;51.474;7.228;2023-09-12T02:44:17;12.90;;;9.82;;
50968;SDS011;36982;51.474;7.228;2023-09-12T02:46:42;13.68;;;10.35;;
50968;SDS011;36982;51.474;7.228;2023-09-12T02:49:08;14.38;;;9.40;;
50968;SDS011;36982;51.474;7.228;2023-09-12T02:51:33;12.32;;;8.98;;
50968;SDS011;36982;51.474;7.228;2023-09-12T02:53:59;11.65;;;9.20;;
50968;SDS011;36982;51.474;7.228;2023-09-12T02:56:24;9.75;;;8.25;;
50968;SDS011;36982;51.474;7.228;2023-09-12T02:58:50;10.90;;;8.98;;
50968;SDS011;36982;51.474;7.228;2023-09-12T03:01:16;12.25;;;9.75;;
50968;SDS011;36982;51.474;7.228;2023-09-12T03:03:43;10.73;;;9.00;;
50968;SDS011;36982;51.474;7.228;2023-09-12T03:06:11;11.12;;;9.00;;
50968;SDS011;36982;51.474;7.228;2023-09-12T03:08:38;13.45;;;8.70;;
50968;SDS011;36982;51.474;7.228;2023-09-12T03:11:04;11.88;;;8.43;;
50968;SDS011;36982;51.474;7.228;2023-09-12T03:13:32;11.98;;;9.23;;
50968;SDS011;36982;51.474;7.228;2023-09-12T03:15:58;12.18;;;8.77;;
50968;SDS011;36982;51.474;7.228;2023-09-12T03:18:23;13.23;;;9.05;;
50968;SDS011;36982;51.474;7.228;2023-09-12T03:20:49;11.52;;;8.70;;
50968;SDS011;36982;51.474;7.228;2023-09-12T03:23:14;12.93;;;9.57;;
50968;SDS011;36982;51.474;7.228;2023-09-12T03:25:40;12.80;;;9.60;;
50968;SDS011;36982;51.474;7.228;2023-09-12T03:28:06;15.27;;;10.05;;
50968;SDS011;36982;51.474;7.228;2023-09-12T03:30:35;13.27;;;9.30;;
50968;SDS011;36982;51.474;7.228;2023-09-12T03:33:02;13.07;;;9.98;;
50968;SDS011;36982;51.474;7.228;2023-09-12T03:35:28;12.13;;;9.55;;
50968;SDS011;36982;51.474;7.228;2023-09-12T03:37:57;13.98;;;9.82;;
50968;SDS011;36982;51.474;7.228;2023-09-12T03:40:22;13.70;;;9.65;;
50968;SDS011;36982;51.474;7.228;2023-09-12T03:42:48;12.50;;;9.48;;
50968;SDS011;36982;51.474;7.228;2023-09-12T03:45:13;12.60;;;9.88;;
50968;SDS011;36982;51.474;7.228;2023-09-12T03:47:39;14.70;;;10.93;;
50968;SDS011;36982;51.474;7.228;2023-09-12T03:50:05;14.90;;;10.50;;
50968;SDS011;36982;51.474;7.228;2023-09-12T03:52:31;14.20;;;11.43;;
50968;SDS011;36982;51.474;7.228;2023-09-12T03:54:56;16.42;;;11.55;;
50968;SDS011;36982;51.474;7.228;2023-09-12T03:57:22;16.10;;;11.82;;
50968;SDS011;36982;51.474;7.228;2023-09-12T03:59:47;15.40;;;11.32;;
50968;SDS011;36982;51.474;7.228;2023-09-12T04:02:13;15.23;;;10.93;;
50968;SDS011;36982;51.474;7.228;2023-09-12T04:04:39;16.67;;;11.88;;
50968;SDS011;36982;51.474;7.228;2023-09-12T04:07:04;18.75;;;12.60;;
50968;SDS011;36982;51.474;7.228;2023-09-12T04:09:30;16.67;;;13.18;;
50968;SDS011;36982;51.474;7.228;2023-09-12T04:11:56;15.40;;;11.80;;
50968;SDS011;36982;51.474;7.228;2023-09-12T04:14:22;14.80;;;12.13;;
50968;SDS011;36982;51.474;7.228;2023-09-12T04:16:47;16.35;;;12.82;;
50968;SDS011;36982;51.474;7.228;2023-09-12T04:19:13;14.43;;;11.52;;
50968;SDS011;36982;51.474;7.228;2023-09-12T04:21:39;13.43;;;10.70;;
50968;SDS011;36982;51.474;7.228;2023-09-12T04:24:05;14.05;;;11.18;;
50968;SDS011;36982;51.474;7.228;2023-09-12T04:26:31;16.10;;;11.88;;
50968;SDS011;36982;51.474;7.228;2023-09-12T04:28:57;16.90;;;12.05;;
50968;SDS011;36982;51.474;7.228;2023-09-12T04:31:22;18.33;;;13.38;;
50968;SDS011;36982;51.474;7.228;2023-09-12T04:33:50;15.68;;;11.52;;
50968;SDS011;36982;51.474;7.228;2023-09-12T04:36:16;15.15;;;11.77;;
50968;SDS011;36982;51.474;7.228;2023-09-12T04:38:42;13.20;;;10.27;;
50968;SDS011;36982;51.474;7.228;2023-09-12T04:41:08;19.73;;;11.27;;
50968;SDS011;36982;51.474;7.228;2023-09-12T04:43:34;16.15;;;10.70;;
50968;SDS011;36982;51.474;7.228;2023-09-12T04:46:00;15.23;;;11.48;;
50968;SDS011;36982;51.474;7.228;2023-09-12T04:48:26;15.50;;;10.48;;
50968;SDS011;36982;51.474;7.228;2023-09-12T04:50:51;14.23;;;10.75;;
50968;SDS011;36982;51.474;7.228;2023-09-12T04:53:17;16.55;;;11.12;;
50968;SDS011;36982;51.474;7.228;2023-09-12T04:55:42;14.15;;;10.80;;
50968;SDS011;36982;51.474;7.228;2023-09-12T04:58:08;16.35;;;10.85;;
50968;SDS011;36982;51.474;7.228;2023-09-12T05:00:33;14.87;;;11.00;;
50968;SDS011;36982;51.474;7.228;2023-09-12T05:03:00;12.13;;;9.80;;
50968;SDS011;36982;51.474;7.228;2023-09-12T05:05:26;11.95;;;9.63;;
50968;SDS011;36982;51.474;7.228;2023-09-12T05:07:52;13.18;;;9.75;;
50968;SDS011;36982;51.474;7.228;2023-09-12T05:10:18;13.85;;;9.45;;
50968;SDS011;36982;51.474;7.228;2023-09-12T05:12:44;12.05;;;9.48;;
50968;SDS011;36982;51.474;7.228;2023-09-12T05:15:10;11.98;;;9.02;;
50968;SDS011;36982;51.474;7.228;2023-09-12T05:17:35;10.23;;;8.68;;
50968;SDS011;36982;51.474;7.228;2023-09-12T05:20:01;11.98;;;8.45;;
50968;SDS011;36982;51.474;7.228;2023-09-12T05:22:29;12.48;;;9.48;;
50968;SDS011;36982;51.474;7.228;2023-09-12T05:24:55;10.80;;;8.50;;
50968;SDS011;36982;51.474;7.228;2023-09-12T05:27:21;10.18;;;8.65;;
50968;SDS011;36982;51.474;7.228;2023-09-12T05:29:46;10.57;;;8.20;;
50968;SDS011;36982;51.474;7.228;2023-09-12T05:32:12;11.55;;;8.80;;
50968;SDS011;36982;51.474;7.228;2023-09-12T05:34:38;14.43;;;9.55;;
50968;SDS011;36982;51.474;7.228;2023-09-12T05:37:03;10.93;;;7.78;;
50968;SDS011;36982;51.474;7.228;2023-09-12T05:39:29;12.80;;;8.20;;
50968;SDS011;36982;51.474;7.228;2023-09-12T05:41:54;13.82;;;8.35;;
50968;SDS011;36982;51.474;7.228;2023-09-12T05:44:20;11.15;;;8.82;;
50968;SDS011;36982;51.474;7.228;2023-09-12T05:46:46;12.45;;;8.68;;
50968;SDS011;36982;51.474;7.228;2023-09-12T05:49:13;14.70;;;9.63;;
50968;SDS011;36982;51.474;7.228;2023-09-12T05:51:39;11.82;;;9.23;;
50968;SDS011;36982;51.474;7.228;2023-09-12T05:54:05;12.27;;;9.30;;
50968;SDS011;36982;51.474;7.228;2023-09-12T05:56:30;14.20;;;9.88;;
50968;SDS011;36982;51.474;7.228;2023-09-12T05:58:56;11.65;;;9.15;;
50968;SDS011;36982;51.474;7.228;2023-09-12T06:01:22;14.38;;;10.35;;
50968;SDS011;36982;51.474;7.228;2023-09-12T06:03:47;16.67;;;10.13;;
50968;SDS011;36982;51.474;7.228;2023-09-12T06:06:13;12.57;;;10.02;;
50968;SDS011;36982;51.474;7.228;2023-09-12T06:08:39;12.95;;;9.65;;
50968;SDS011;36982;51.474;7.228;2023-09-12T06:11:04;15.55;;;10.13;;
50968;SDS011;36982;51.474;7.228;2023-09-12T06:13:30;14.02;;;9.38;;
50968;SDS011;36982;51.474;7.228;2023-09-12T06:15:57;13.50;;;9.57;;
50968;SDS011;36982;51.474;7.228;2023-09-12T06:18:23;14.55;;;9.70;;
50968;SDS011;36982;51.474;7.228;2023-09-12T06:20:49;11.95;;;9.65;;
50968;SDS011;36982;51.474;7.228;2023-09-12T06:23:15;14.32;;;10.05;;
50968;SDS011;36982;51.474;7.228;2023-09-12T06:25:40;13.55;;;9.50;;
50968;SDS011;36982;51.474;7.228;2023-09-12T06:28:08;17.92;;;11.12;;
50968;SDS011;36982;51.474;7.228;2023-09-12T06:30:35;14.50;;;10.55;;
50968;SDS011;36982;51.474;7.228;2023-09-12T06:33:00;16.02;;;11.15;;
50968;SDS011;36982;51.474;7.228;2023-09-12T06:35:26;15.65;;;11.02;;
50968;SDS011;36982;51.474;7.228;2023-09-12T06:37:52;16.10;;;11.18;;
50968;SDS011;36982;51.474;7.228;2023-09-12T06:40:17;18.27;;;10.77;;
50968;SDS011;36982;51.474;7.228;2023-09-12T06:42:43;14.75;;;10.50;;
50968;SDS011;36982;51.474;7.228;2023-09-12T06:45:09;16.50;;;10.98;;
50968;SDS011;36982;51.474;7.228;2023-09-12T06:47:34;14.75;;;11.73;;
50968;SDS011;36982;51.474;7.228;2023-09-12T06:50:00;15.98;;;10.57;;
50968;SDS011;36982;51.474;7.228;2023-09-12T06:52:26;13.75;;;9.80;;
50968;SDS011;36982;51.474;7.228;2023-09-12T06:54:52;12.70;;;9.95;;
50968;SDS011;36982;51.474;7.228;2023-09-12T06:57:17;15.45;;;10.88;;
50968;SDS011;36982;51.474;7.228;2023-09-12T06:59:43;13.93;;;9.50;;
50968;SDS011;36982;51.474;7.228;2023-09-12T07:02:09;10.68;;;8.65;;
50968;SDS011;36982;51.474;7.228;2023-09-12T07:04:36;9.82;;;6.95;;
50968;SDS011;36982;51.474;7.228;2023-09-12T07:07:02;12.45;;;6.28;;
50968;SDS011;36982;51.474;7.228;2023-09-12T07:09:29;12.00;;;6.60;;
50968;SDS011;36982;51.474;7.228;2023-09-12T07:11:55;9.30;;;6.10;;
50968;SDS011;36982;51.474;7.228;2023-09-12T07:14:20;8.45;;;6.90;;
50968;SDS011;36982;51.474;7.228;2023-09-12T07:16:46;8.75;;;6.40;;
50968;SDS011;36982;51.474;7.228;2023-09-12T07:19:12;10.55;;;6.62;;
50968;SDS011;36982;51.474;7.228;2023-09-12T07:21:38;9.05;;;6.20;;
50968;SDS011;36982;51.474;7.228;2023-09-12T07:24:03;9.30;;;6.05;;
50968;SDS011;36982;51.474;7.228;2023-09-12T07:26:30;10.05;;;6.68;;
50968;SDS011;36982;51.474;7.228;2023-09-12T07:28:56;11.98;;;7.07;;
50968;SDS011;36982;51.474;7.228;2023-09-12T07:31:22;10.35;;;6.60;;
50968;SDS011;36982;51.474;7.228;2023-09-12T07:33:47;13.20;;;7.43;;
50968;SDS011;36982;51.474;7.228;2023-09-12T07:36:13;10.75;;;6.85;;
50968;SDS011;36982;51.474;7.228;2023-09-12T07:38:39;12.60;;;6.82;;
50968;SDS011;36982;51.474;7.228;2023-09-12T07:41:04;10.23;;;6.70;;
50968;SDS011;36982;51.474;7.228;2023-09-12T07:43:30;12.25;;;7.43;;
50968;SDS011;36982;51.474;7.228;2023-09-12T07:45:56;16.30;;;8.77;;
50968;SDS011;36982;51.474;7.228;2023-09-12T07:48:22;12.37;;;8.93;;
50968;SDS011;36982;51.474;7.228;2023-09-12T07:50:47;13.13;;;8.68;;
50968;SDS011;36982;51.474;7.228;2023-09-12T07:53:13;11.07;;;8.60;;
50968;SDS011;36982;51.474;7.228;2023-09-12T07:55:39;14.15;;;9.90;;
50968;SDS011;36982;51.474;7.228;2023-09-12T07:58:11;16.37;;;9.40;;
50968;SDS011;36982;51.474;7.228;2023-09-12T08:00:37;12.30;;;9.20;;
50968;SDS011;36982;51.474;7.228;2023-09-12T08:03:03;12.85;;;9.07;;
50968;SDS011;36982;51.474;7.228;2023-09-12T08:05:29;13.90;;;9.68;;
50968;SDS011;36982;51.474;7.228;2023-09-12T08:07:54;10.80;;;7.72;;
50968;SDS011;36982;51.474;7.228;2023-09-12T08:10:20;9.48;;;7.65;;
50968;SDS011;36982;51.474;7.228;2023-09-12T08:12:45;11.98;;;8.48;;
50968;SDS011;36982;51.474;7.228;2023-09-12T08:15:11;9.38;;;6.90;;
50968;SDS011;36982;51.474;7.228;2023-09-12T08:17:37;10.40;;;6.95;;
50968;SDS011;36982;51.474;7.228;2023-09-12T08:20:04;7.53;;;6.03;;
50968;SDS011;36982;51.474;7.228;2023-09-12T08:22:31;7.32;;;5.97;;
50968;SDS011;36982;51.474;7.228;2023-09-12T08:24:56;9.15;;;6.30;;
50968;SDS011;36982;51.474;7.228;2023-09-12T08:27:22;9.18;;;5.03;;
50968;SDS011;36982;51.474;7.228;2023-09-12T08:29:48;4.45;;;3.70;;
50968;SDS011;36982;51.474;7.228;2023-09-12T08:32:14;5.87;;;3.95;;
50968;SDS011;36982;51.474;7.228;2023-09-12T08:34:39;7.93;;;4.00;;
50968;SDS011;36982;51.474;7.228;2023-09-12T08:37:05;5.93;;;3.78;;
50968;SDS011;36982;51.474;7.228;2023-09-12T08:39:40;4.00;;;3.60;;
50968;SDS011;36982;51.474;7.228;2023-09-12T08:42:08;5.62;;;2.97;;
50968;SDS011;36982;51.474;7.228;2023-09-12T08:44:37;4.15;;;3.17;;
50968;SDS011;36982;51.474;7.228;2023-09-12T08:47:03;2.80;;;2.53;;
50968;SDS011;36982;51.474;7.228;2023-09-12T08:49:33;8.45;;;3.47;;
50968;SDS011;36982;51.474;7.228;2023-09-12T08:52:00;6.15;;;3.25;;
50968;SDS011;36982;51.474;7.228;2023-09-12T08:54:26;3.65;;;2.97;;
50968;SDS011;36982;51.474;7.228;2023-09-12T08:56:51;5.32;;;2.95;;
50968;SDS011;36982;51.474;7.228;2023-09-12T08:59:18;4.37;;;3.50;;
50968;SDS011;36982;51.474;7.228;2023-09-12T09:01:45;6.10;;;3.40;;
50968;SDS011;36982;51.474;7.228;2023-09-12T09:04:11;4.85;;;4.35;;
50968;SDS011;36982;51.474;7.228;2023-09-12T09:06:37;8.77;;;5.35;;
50968;SDS011;36982;51.474;7.228;2023-09-12T09:09:07;9.45;;;7.37;;
50968;SDS011;36982;51.474;7.228;2023-09-12T09:11:33;9.93;;;8.40;;
50968;SDS011;36982;51.474;7.228;2023-09-12T09:14:00;12.82;;;9.50;;
50968;SDS011;36982;51.474;7.228;2023-09-12T09:16:29;12.80;;;10.18;;
50968;SDS011;36982;51.474;7.228;2023-09-12T09:21:23;15.93;;;11.93;;
50968;SDS011;36982;51.474;7.228;2023-09-12T09:23:51;15.02;;;12.82;;
50968;SDS011;36982;51.474;7.228;2023-09-12T09:26:18;17.65;;;12.05;;
50968;SDS011;36982;51.474;7.228;2023-09-12T09:28:44;17.10;;;12.80;;
50968;SDS011;36982;51.474;7.228;2023-09-12T09:31:10;18.00;;;13.27;;
50968;SDS011;36982;51.474;7.228;2023-09-12T09:33:37;15.80;;;13.02;;
50968;SDS011;36982;51.474;7.228;2023-09-12T09:36:05;14.30;;;12.80;;
50968;SDS011;36982;51.474;7.228;2023-09-12T09:38:31;18.58;;;12.88;;
50968;SDS011;36982;51.474;7.228;2023-09-12T09:40:59;15.07;;;13.00;;
50968;SDS011;36982;51.474;7.228;2023-09-12T09:43:24;19.20;;;13.57;;
50968;SDS011;36982;51.474;7.228;2023-09-12T09:45:50;14.32;;;12.63;;
50968;SDS011;36982;51.474;7.228;2023-09-12T09:48:23;14.93;;;11.82;;
50968;SDS011;36982;51.474;7.228;2023-09-12T09:50:51;17.10;;;12.85;;
50968;SDS011;36982;51.474;7.228;2023-09-12T09:53:21;14.70;;;12.02;;
50968;SDS011;36982;51.474;7.228;2023-09-12T09:58:36;12.15;;;10.85;;
50968;SDS011;36982;51.474;7.228;2023-09-12T10:03:50;14.18;;;11.30;;
50968;SDS011;36982;51.474;7.228;2023-09-12T10:06:17;13.62;;;10.75;;
50968;SDS011;36982;51.474;7.228;2023-09-12T10:08:50;11.90;;;10.18;;
50968;SDS011;36982;51.474;7.228;2023-09-12T10:11:17;10.45;;;8.90;;
50968;SDS011;36982;51.474;7.228;2023-09-12T10:13:55;12.35;;;9.98;;
50968;SDS011;36982;51.474;7.228;2023-09-12T10:16:32;8.77;;;7.28;;
50968;SDS011;36982;51.474;7.228;2023-09-12T10:19:10;10.02;;;8.18;;
50968;SDS011;36982;51.474;7.228;2023-09-12T10:24:16;12.35;;;9.20;;
50968;SDS011;36982;51.474;7.228;2023-09-12T10:26:43;9.60;;;8.48;;
50968;SDS011;36982;51.474;7.228;2023-09-12T10:29:12;10.65;;;8.57;;
50968;SDS011;36982;51.474;7.228;2023-09-12T10:31:40;10.65;;;7.60;;
50968;SDS011;36982;51.474;7.228;2023-09-12T10:34:05;10.13;;;7.87;;
50968;SDS011;36982;51.474;7.228;2023-09-12T10:36:35;9.43;;;7.35;;
50968;SDS011;36982;51.474;7.228;2023-09-12T10:39:03;8.10;;;7.18;;
50968;SDS011;36982;51.474;7.228;2023-09-12T10:41:30;7.72;;;6.45;;
50968;SDS011;36982;51.474;7.228;2023-09-12T10:43:57;7.12;;;5.87;;
50968;SDS011;36982;51.474;7.228;2023-09-12T10:46:24;5.03;;;4.53;;
50968;SDS011;36982;51.474;7.228;2023-09-12T10:48:50;6.37;;;4.57;;
50968;SDS011;36982;51.474;7.228;2023-09-12T10:51:16;5.85;;;4.55;;
50968;SDS011;36982;51.474;7.228;2023-09-12T10:53:49;4.53;;;4.12;;
50968;SDS011;36982;51.474;7.228;2023-09-12T10:56:17;5.05;;;3.50;;
50968;SDS011;36982;51.474;7.228;2023-09-12T11:01:46;5.50;;;4.07;;
50968;SDS011;36982;51.474;7.228;2023-09-12T11:06:43;5.22;;;3.87;;
50968;SDS011;36982;51.474;7.228;2023-09-12T11:09:25;5.18;;;3.87;;
50968;SDS011;36982;51.474;7.228;2023-09-12T11:14:21;4.50;;;4.10;;
50968;SDS011;36982;51.474;7.228;2023-09-12T11:19:45;5.78;;;3.58;;
50968;SDS011;36982;51.474;7.228;2023-09-12T11:22:22;5.87;;;3.90;;
50968;SDS011;36982;51.474;7.228;2023-09-12T11:24:52;5.22;;;3.92;;
50968;SDS011;36982;51.474;7.228;2023-09-12T11:27:20;5.85;;;3.70;;
50968;SDS011;36982;51.474;7.228;2023-09-12T11:29:47;3.80;;;3.40;;
50968;SDS011;36982;51.474;7.228;2023-09-12T11:32:24;5.07;;;3.40;;
50968;SDS011;36982;51.474;7.228;2023-09-12T11:34:56;4.80;;;3.33;;
50968;SDS011;36982;51.474;7.228;2023-09-12T11:37:26;4.62;;;3.92;;
50968;SDS011;36982;51.474;7.228;2023-09-12T11:39:53;4.40;;;3.80;;
50968;SDS011;36982;51.474;7.228;2023-09-12T11:42:19;5.85;;;4.32;;
50968;SDS011;36982;51.474;7.228;2023-09-12T11:44:48;7.40;;;4.75;;
50968;SDS011;36982;51.474;7.228;2023-09-12T11:47:15;6.20;;;4.05;;
50968;SDS011;36982;51.474;7.228;2023-09-12T11:49:41;5.45;;;3.67;;
50968;SDS011;36982;51.474;7.228;2023-09-12T11:52:11;7.10;;;3.90;;
50968;SDS011;36982;51.474;7.228;2023-09-12T11:54:38;4.65;;;3.75;;
50968;SDS011;36982;51.474;7.228;2023-09-12T11:57:12;3.83;;;3.33;;
50968;SDS011;36982;51.474;7.228;2023-09-12T11:59:40;5.37;;;4.35;;
50968;SDS011;36982;51.474;7.228;2023-09-12T12:02:10;5.30;;;3.90;;
50968;SDS011;36982;51.474;7.228;2023-09-12T12:04:36;4.40;;;3.92;;
50968;SDS011;36982;51.474;7.228;2023-09-12T12:07:02;4.20;;;3.42;;
50968;SDS011;36982;51.474;7.228;2023-09-12T12:09:29;8.32;;;3.75;;
50968;SDS011;36982;51.474;7.228;2023-09-12T12:11:55;3.80;;;3.30;;
50968;SDS011;36982;51.474;7.228;2023-09-12T12:14:25;5.95;;;3.40;;
50968;SDS011;36982;51.474;7.228;2023-09-12T12:16:51;5.25;;;4.10;;
50968;SDS011;36982;51.474;7.228;2023-09-12T12:19:17;3.70;;;3.08;;
50968;SDS011;36982;51.474;7.228;2023-09-12T12:21:43;3.97;;;2.87;;
50968;SDS011;36982;51.474;7.228;2023-09-12T12:24:13;4.00;;;3.28;;
50968;SDS011;36982;51.474;7.228;2023-09-12T12:26:43;5.20;;;3.80;;
50968;SDS011;36982;51.474;7.228;2023-09-12T12:29:09;4.57;;;3.80;;
50968;SDS011;36982;51.474;7.228;2023-09-12T12:31:36;4.85;;;3.80;;
50968;SDS011;36982;51.474;7.228;2023-09-12T12:34:02;4.40;;;3.60;;
50968;SDS011;36982;51.474;7.228;2023-09-12T12:36:29;5.07;;;3.80;;
50968;SDS011;36982;51.474;7.228;2023-09-12T12:38:55;5.32;;;4.15;;
50968;SDS011;36982;51.474;7.228;2023-09-12T12:41:24;4.90;;;4.22;;
50968;SDS011;36982;51.474;7.228;2023-09-12T12:43:51;5.35;;;4.18;;
50968;SDS011;36982;51.474;7.228;2023-09-12T12:46:18;4.80;;;4.30;;
50968;SDS011;36982;51.474;7.228;2023-09-12T12:48:46;6.78;;;4.30;;
50968;SDS011;36982;51.474;7.228;2023-09-12T12:51:24;5.30;;;4.78;;
50968;SDS011;36982;51.474;7.228;2023-09-12T12:53:52;5.03;;;4.53;;
50968;SDS011;36982;51.474;7.228;2023-09-12T12:56:20;4.78;;;4.15;;
50968;SDS011;36982;51.474;7.228;2023-09-12T12:58:51;5.85;;;5.10;;
50968;SDS011;36982;51.474;7.228;2023-09-12T13:01:19;5.55;;;5.00;;
50968;SDS011;36982;51.474;7.228;2023-09-12T13:03:44;5.97;;;4.85;;
50968;SDS011;36982;51.474;7.228;2023-09-12T13:06:10;6.85;;;5.18;;
50968;SDS011;36982;51.474;7.228;2023-09-12T13:08:40;5.47;;;4.87;;
50968;SDS011;36982;51.474;7.228;2023-09-12T13:11:09;7.15;;;5.30;;
50968;SDS011;36982;51.474;7.228;2023-09-12T13:13:36;7.80;;;5.65;;
50968;SDS011;36982;51.474;7.228;2023-09-12T13:16:03;7.10;;;5.68;;
50968;SDS011;36982;51.474;7.228;2023-09-12T13:18:30;5.22;;;4.40;;
50968;SDS011;36982;51.474;7.228;2023-09-12T13:20:59;6.68;;;5.60;;
50968;SDS011;36982;51.474;7.228;2023-09-12T13:23:25;6.75;;;5.18;;
50968;SDS011;36982;51.474;7.228;2023-09-12T13:25:51;6.45;;;5.28;;
50968;SDS011;36982;51.474;7.228;2023-09-12T13:28:17;8.02;;;5.50;;
50968;SDS011;36982;51.474;7.228;2023-09-12T13:30:42;6.60;;;5.30;;
50968;SDS011;36982;51.474;7.228;2023-09-12T13:33:09;6.43;;;5.82;;
50968;SDS011;36982;51.474;7.228;2023-09-12T13:35:40;7.93;;;6.05;;
50968;SDS011;36982;51.474;7.228;2023-09-12T13:38:06;9.05;;;5.62;;
50968;SDS011;36982;51.474;7.228;2023-09-12T13:40:37;7.25;;;4.97;;
50968;SDS011;36982;51.474;7.228;2023-09-12T13:43:04;5.37;;;4.47;;
50968;SDS011;36982;51.474;7.228;2023-09-12T13:45:31;6.32;;;5.50;;
50968;SDS011;36982;51.474;7.228;2023-09-12T13:47:57;7.00;;;6.03;;
50968;SDS011;36982;51.474;7.228;2023-09-12T13:50:28;5.93;;;4.87;;
50968;SDS011;36982;51.474;7.228;2023-09-12T13:52:55;5.65;;;5.12;;
50968;SDS011;36982;51.474;7.228;2023-09-12T13:55:21;6.65;;;5.87;;
50968;SDS011;36982;51.474;7.228;2023-09-12T13:57:47;6.97;;;5.70;;
50968;SDS011;36982;51.474;7.228;2023-09-12T14:00:13;6.12;;;5.53;;
50968;SDS011;36982;51.474;7.228;2023-09-12T14:02:39;8.05;;;5.95;;
50968;SDS011;36982;51.474;7.228;2023-09-12T14:05:05;7.50;;;5.53;;
50968;SDS011;36982;51.474;7.228;2023-09-12T14:07:30;6.85;;;5.85;;
50968;SDS011;36982;51.474;7.228;2023-09-12T14:09:56;6.90;;;5.80;;
50968;SDS011;36982;51.474;7.228;2023-09-12T14:12:22;8.27;;;5.62;;
50968;SDS011;36982;51.474;7.228;2023-09-12T14:14:48;5.55;;;5.03;;
50968;SDS011;36982;51.474;7.228;2023-09-12T14:17:14;6.62;;;5.97;;
50968;SDS011;36982;51.474;7.228;2023-09-12T14:19:40;6.55;;;5.32;;
50968;SDS011;36982;51.474;7.228;2023-09-12T14:22:06;6.10;;;5.50;;
50968;SDS011;36982;51.474;7.228;2023-09-12T14:24:31;7.47;;;6.62;;
50968;SDS011;36982;51.474;7.228;2023-09-12T14:26:57;6.22;;;5.62;;
50968;SDS011;36982;51.474;7.228;2023-09-12T14:29:23;6.10;;;5.50;;
50968;SDS011;36982;51.474;7.228;2023-09-12T14:31:51;6.80;;;6.10;;
50968;SDS011;36982;51.474;7.228;2023-09-12T14:34:22;6.70;;;5.28;;
50968;SDS011;36982;51.474;7.228;2023-09-12T14:36:56;6.45;;;5.55;;
50968;SDS011;36982;51.474;7.228;2023-09-12T14:39:22;7.20;;;6.35;;
50968;SDS011;36982;51.474;7.228;2023-09-12T14:41:48;12.98;;;11.05;;
50968;SDS011;36982;51.474;7.228;2023-09-12T14:44:20;8.02;;;6.62;;
50968;SDS011;36982;51.474;7.228;2023-09-12T14:46:46;6.43;;;5.82;;
50968;SDS011;36982;51.474;7.228;2023-09-12T14:49:12;7.20;;;5.70;;
50968;SDS011;36982;51.474;7.228;2023-09-12T14:51:38;6.62;;;5.95;;
50968;SDS011;36982;51.474;7.228;2023-09-12T14:54:04;8.80;;;6.30;;
50968;SDS011;36982;51.474;7.228;2023-09-12T14:56:30;7.03;;;6.00;;
50968;SDS011;36982;51.474;7.228;2023-09-12T14:58:57;7.82;;;6.12;;